createdAt,value
2022-09-02T00:01:37.224Z,21.20
2022-09-02T00:04:07.502Z,21.20
2022-09-02T00:06:35.264Z,21.20
2022-09-02T00:09:04.219Z,21.20
2022-09-02T00:11:33.418Z,21.20
2022-09-02T00:14:04.239Z,21.10
2022-09-02T00:16:33.539Z,21.10
2022-09-02T00:19:03.594Z,21.10
2022-09-02T00:21:34.264Z,21.00
2022-09-02T00:24:02.696Z,21.00
2022-09-02T00:26:29.836Z,21.00
2022-09-02T00:28:57.249Z,21.00
2022-09-02T00:31:27.444Z,21.00
2022-09-02T00:33:55.579Z,21.00
2022-09-02T00:36:22.761Z,21.00
2022-09-02T00:38:49.940Z,21.00
2022-09-02T00:41:20.165Z,20.90
2022-09-02T00:43:51.329Z,20.90
2022-09-02T00:46:21.454Z,20.90
2022-09-02T00:48:54.672Z,20.90
2022-09-02T00:51:22.752Z,20.90
2022-09-02T00:53:51.054Z,20.90
2022-09-02T00:56:22.757Z,20.80
2022-09-02T00:58:52.118Z,20.80
2022-09-02T01:01:19.520Z,20.80
2022-09-02T01:03:46.732Z,20.80
2022-09-02T01:06:15.406Z,20.70
2022-09-02T01:08:51.959Z,20.70
2022-09-02T01:11:21.360Z,20.70
2022-09-02T01:13:48.565Z,20.70
2022-09-02T01:16:31.149Z,20.70
2022-09-02T01:19:01.983Z,20.70
2022-09-02T01:21:29.059Z,20.60
2022-09-02T01:23:56.556Z,20.60
2022-09-02T01:26:23.641Z,20.60
2022-09-02T01:28:52.104Z,20.50
2022-09-02T01:31:19.614Z,20.50
2022-09-02T01:33:46.647Z,20.50
2022-09-02T01:36:14.477Z,20.50
2022-09-02T01:38:41.464Z,20.50
2022-09-02T01:41:08.898Z,20.50
2022-09-02T01:43:37.059Z,20.60
2022-09-02T01:46:04.872Z,20.60
2022-09-02T01:48:32.195Z,20.60
2022-09-02T01:51:03.434Z,20.60
2022-09-02T01:53:31.959Z,20.60
2022-09-02T01:56:00.237Z,20.60
2022-09-02T01:58:30.486Z,20.60
2022-09-02T02:00:57.624Z,20.50
2022-09-02T02:03:25.404Z,20.50
2022-09-02T02:05:53.318Z,20.60
2022-09-02T02:08:21.829Z,20.50
2022-09-02T02:10:50.101Z,20.50
2022-09-02T02:13:18.037Z,20.50
2022-09-02T02:15:45.498Z,20.50
2022-09-02T02:18:12.662Z,20.50
2022-09-02T02:20:39.772Z,20.50
2022-09-02T02:23:09.887Z,20.50
2022-09-02T02:25:38.577Z,20.50
2022-09-02T02:28:05.750Z,20.40
2022-09-02T02:30:33.206Z,20.40
2022-09-02T02:33:01.824Z,20.40
2022-09-02T02:35:29.212Z,20.50
2022-09-02T02:37:56.437Z,20.40
2022-09-02T02:40:25.300Z,20.40
2022-09-02T02:42:53.660Z,20.40
2022-09-02T02:45:24.144Z,20.40
2022-09-02T02:47:52.401Z,20.40
2022-09-02T02:50:22.869Z,20.40
2022-09-02T02:52:50.549Z,20.30
2022-09-02T02:55:19.400Z,20.30
2022-09-02T02:57:46.706Z,20.30
2022-09-02T03:00:18.940Z,20.20
2022-09-02T03:02:49.705Z,20.20
2022-09-02T03:05:20.342Z,20.20
2022-09-02T03:07:48.311Z,20.20
2022-09-02T03:10:17.769Z,20.10
2022-09-02T03:12:47.837Z,20.20
2022-09-02T03:15:19.909Z,20.10
2022-09-02T03:17:50.769Z,20.10
2022-09-02T03:20:19.834Z,20.10
2022-09-02T03:22:55.496Z,20.10
2022-09-02T03:25:23.826Z,20.00
2022-09-02T03:27:55.413Z,20.00
2022-09-02T03:30:28.406Z,20.00
2022-09-02T03:33:03.742Z,20.00
2022-09-02T03:35:33.798Z,19.90
2022-09-02T03:38:01.737Z,19.90
2022-09-02T03:40:29.760Z,19.90
2022-09-02T03:43:00.116Z,19.90
2022-09-02T03:45:30.017Z,19.90
2022-09-02T03:47:59.800Z,19.90
2022-09-02T03:50:33.796Z,19.90
2022-09-02T03:53:01.217Z,19.80
2022-09-02T03:55:29.568Z,19.80
2022-09-02T03:57:56.758Z,19.80
2022-09-02T04:00:29.895Z,19.80
2022-09-02T04:03:01.627Z,19.80
2022-09-02T04:05:30.344Z,19.80
2022-09-02T04:08:00.695Z,19.80
2022-09-02T04:10:28.720Z,19.70
2022-09-02T04:12:56.076Z,19.70
2022-09-02T04:15:23.184Z,19.70
2022-09-02T04:17:51.918Z,19.70
2022-09-02T04:20:21.002Z,19.70
2022-09-02T04:22:48.134Z,19.70
2022-09-02T04:25:16.170Z,19.70
2022-09-02T04:27:45.276Z,19.70
2022-09-02T04:30:16.427Z,19.70
2022-09-02T04:32:44.585Z,19.70
2022-09-02T04:35:12.566Z,19.70
2022-09-02T04:37:39.902Z,19.70
2022-09-02T04:40:08.641Z,19.70
2022-09-02T04:42:36.021Z,19.70
2022-09-02T04:45:03.547Z,19.70
2022-09-02T04:47:32.191Z,19.70
2022-09-02T04:49:59.433Z,19.70
2022-09-02T04:52:27.032Z,19.70
2022-09-02T04:54:54.317Z,19.70
2022-09-02T04:57:21.431Z,19.70
2022-09-02T04:59:49.076Z,19.80
2022-09-02T05:02:16.342Z,19.80
2022-09-02T05:04:43.662Z,19.80
2022-09-02T05:07:18.689Z,19.80
2022-09-02T05:09:47.867Z,19.90
2022-09-02T05:12:18.304Z,19.90
2022-09-02T05:14:50.649Z,19.90
2022-09-02T05:17:20.327Z,20.00
2022-09-02T05:19:49.317Z,20.00
2022-09-02T05:22:17.745Z,20.00
2022-09-02T05:24:45.786Z,20.10
2022-09-02T05:27:16.437Z,20.10
2022-09-02T05:29:45.666Z,20.10
2022-09-02T05:32:15.194Z,20.20
2022-09-02T05:34:44.144Z,20.30
2022-09-02T05:37:12.214Z,20.30
2022-09-02T05:39:39.276Z,20.40
2022-09-02T05:42:07.707Z,20.50
2022-09-02T05:44:36.794Z,20.50
2022-09-02T05:47:05.454Z,20.60
2022-09-02T05:49:33.011Z,20.70
2022-09-02T05:52:05.638Z,20.80
2022-09-02T05:54:40.937Z,20.90
2022-09-02T05:57:14.284Z,21.10
2022-09-02T06:00:06.267Z,21.20
2022-09-02T06:02:44.091Z,21.50
2022-09-02T06:05:38.329Z,21.70
2022-09-02T06:08:15.947Z,22.00
2022-09-02T06:10:43.442Z,22.40
2022-09-02T06:13:15.854Z,22.70
2022-09-02T06:15:44.408Z,22.90
2022-09-02T06:18:14.398Z,23.10
2022-09-02T06:20:47.182Z,23.10
2022-09-02T06:23:17.039Z,23.10
2022-09-02T06:25:47.727Z,23.00
2022-09-02T06:28:16.025Z,23.00
2022-09-02T06:30:47.312Z,22.90
2022-09-02T06:33:16.715Z,22.80
2022-09-02T06:35:46.387Z,22.80
2022-09-02T06:38:17.167Z,22.70
2022-09-02T06:40:55.286Z,22.80
2022-09-02T06:43:42.377Z,22.80
2022-09-02T06:46:22.517Z,22.90
2022-09-02T06:48:52.257Z,23.00
2022-09-02T06:51:28.325Z,23.10
2022-09-02T06:53:56.686Z,23.20
2022-09-02T06:56:27.779Z,23.20
2022-09-02T06:58:55.914Z,23.40
2022-09-02T07:01:35.464Z,23.40
2022-09-02T07:04:22.100Z,23.50
2022-09-02T07:06:53.542Z,23.50
2022-09-02T07:09:33.992Z,23.60
2022-09-02T07:12:08.973Z,23.70
2022-09-02T07:14:42.519Z,23.70
2022-09-02T07:17:17.764Z,23.70
2022-09-02T07:19:49.880Z,23.70
2022-09-02T07:22:18.046Z,23.70
2022-09-02T07:24:46.927Z,23.80
2022-09-02T07:27:15.145Z,23.80
2022-09-02T07:29:44.416Z,24.00
2022-09-02T07:32:12.232Z,24.00
2022-09-02T07:34:39.252Z,24.00
2022-09-02T07:37:10.715Z,24.00
2022-09-02T07:39:39.520Z,24.10
2022-09-02T07:42:07.850Z,24.20
2022-09-02T07:44:35.098Z,24.30
2022-09-02T07:47:02.227Z,24.40
2022-09-02T07:50:15.348Z,24.40
2022-09-02T07:52:17.831Z,24.50
2022-09-02T07:54:45.425Z,24.60
2022-09-02T07:57:12.479Z,24.70
2022-09-02T07:59:40.672Z,24.80
2022-09-02T08:02:09.594Z,24.90
2022-09-02T08:04:36.684Z,25.00
2022-09-02T08:07:07.540Z,25.10
2022-09-02T08:09:35.125Z,25.30
2022-09-02T08:12:02.486Z,25.40
2022-09-02T08:14:30.158Z,25.60
2022-09-02T08:16:58.248Z,25.70
2022-09-02T08:19:27.415Z,25.70
2022-09-02T08:21:55.411Z,25.80
2022-09-02T08:24:22.626Z,25.90
2022-09-02T08:26:49.784Z,26.00
2022-09-02T08:29:16.987Z,26.10
2022-09-02T08:31:44.073Z,26.20
2022-09-02T08:34:11.082Z,26.30
2022-09-02T08:36:39.857Z,26.20
2022-09-02T08:39:11.795Z,26.20
2022-09-02T08:44:33.546Z,26.40
2022-09-02T08:47:05.006Z,26.50
2022-09-02T08:49:43.519Z,26.70
2022-09-02T08:52:27.395Z,26.90
2022-09-02T08:54:55.979Z,27.10
2022-09-02T08:57:27.640Z,27.20
2022-09-02T09:00:01.012Z,27.30
2022-09-02T09:02:46.665Z,27.40
2022-09-02T09:05:30.933Z,27.30
2022-09-02T09:08:24.387Z,27.30
2022-09-02T09:11:36.644Z,27.40
2022-09-02T09:14:03.611Z,27.50
2022-09-02T09:17:02.943Z,27.60
2022-09-02T09:19:48.042Z,27.60
2022-09-02T09:22:18.627Z,27.60
2022-09-02T09:24:50.430Z,27.50
2022-09-02T09:27:22.271Z,27.50
2022-09-02T09:29:50.783Z,27.50
2022-09-02T09:32:35.072Z,27.50
2022-09-02T09:35:06.976Z,27.60
2022-09-02T09:37:42.315Z,27.60
2022-09-02T09:40:26.723Z,27.60
2022-09-02T09:42:57.236Z,27.70
2022-09-02T09:45:47.775Z,27.70
2022-09-02T09:48:23.854Z,27.80
2022-09-02T09:50:56.695Z,27.80
2022-09-02T09:53:27.618Z,27.90
2022-09-02T09:55:58.477Z,28.00
2022-09-02T09:58:52.774Z,28.00
2022-09-02T10:01:22.915Z,28.00
2022-09-02T10:03:56.012Z,28.00
2022-09-02T10:06:32.294Z,28.10
2022-09-02T10:09:04.148Z,28.20
2022-09-02T10:11:38.491Z,28.30
2022-09-02T10:14:10.149Z,28.40
2022-09-02T10:16:54.583Z,28.50
2022-09-02T10:19:26.836Z,28.50
2022-09-02T10:22:40.048Z,28.40
2022-09-02T10:25:22.865Z,28.40
2022-09-02T10:28:09.716Z,28.40
2022-09-02T10:30:58.394Z,28.60
2022-09-02T10:33:28.384Z,28.70
2022-09-02T10:36:27.756Z,28.80
2022-09-02T10:39:00.712Z,28.90
2022-09-02T10:41:36.551Z,29.10
2022-09-02T10:44:21.466Z,29.20
2022-09-02T10:47:29.649Z,29.30
2022-09-02T10:50:23.791Z,29.30
2022-09-02T10:53:11.714Z,29.30
2022-09-02T10:56:01.537Z,29.20
2022-09-02T10:58:56.047Z,29.10
2022-09-02T11:01:32.216Z,29.10
2022-09-02T11:04:05.252Z,29.00
2022-09-02T11:06:58.611Z,29.00
2022-09-02T11:09:33.430Z,29.10
2022-09-02T11:12:06.618Z,29.10
2022-09-02T11:14:41.111Z,29.20
2022-09-02T11:17:33.114Z,29.20
2022-09-02T11:20:34.472Z,29.30
2022-09-02T11:23:36.012Z,29.30
2022-09-02T11:26:30.222Z,29.20
2022-09-02T11:28:58.115Z,29.20
2022-09-02T11:31:38.868Z,29.10
2022-09-02T11:34:12.069Z,29.10
2022-09-02T11:36:40.457Z,29.10
2022-09-02T11:40:11.273Z,29.10
2022-09-02T11:43:03.202Z,29.10
2022-09-02T11:46:08.313Z,29.10
2022-09-02T11:48:53.759Z,29.10
2022-09-02T11:51:56.160Z,29.10
2022-09-02T11:54:26.472Z,29.30
2022-09-02T11:56:59.678Z,29.30
2022-09-02T11:59:51.374Z,29.40
2022-09-02T12:02:51.991Z,29.40
2022-09-02T12:05:30.240Z,29.40
2022-09-02T12:08:05.563Z,29.50
2022-09-02T12:10:42.584Z,29.50
2022-09-02T12:13:29.667Z,29.50
2022-09-02T12:16:23.826Z,29.40
2022-09-02T12:19:00.732Z,29.40
2022-09-02T12:21:30.177Z,29.40
2022-09-02T12:23:57.264Z,29.40
2022-09-02T12:26:28.357Z,29.40
2022-09-02T12:29:11.324Z,29.40
2022-09-02T12:31:44.403Z,29.30
2022-09-02T12:34:20.465Z,29.30
2022-09-02T12:36:52.077Z,29.20
2022-09-02T12:39:25.640Z,29.10
2022-09-02T12:42:07.873Z,29.10
2022-09-02T12:44:41.749Z,29.10
2022-09-02T12:47:24.256Z,29.10
2022-09-02T12:50:26.917Z,29.10
2022-09-02T12:53:19.186Z,29.10
2022-09-02T12:56:13.767Z,29.10
2022-09-02T12:58:47.449Z,29.10
2022-09-02T13:01:14.579Z,29.20
2022-09-02T13:04:19.792Z,29.10
2022-09-02T13:07:08.365Z,29.10
2022-09-02T13:09:55.086Z,29.20
2022-09-02T13:12:43.403Z,29.30
2022-09-02T13:15:13.447Z,29.30
2022-09-02T13:18:09.089Z,29.40
2022-09-02T13:21:14.872Z,29.50
2022-09-02T13:24:05.885Z,29.50
2022-09-02T13:26:49.279Z,29.50
2022-09-02T13:29:23.957Z,29.60
2022-09-02T13:32:10.741Z,29.60
2022-09-02T13:34:46.789Z,29.70
2022-09-02T13:37:37.071Z,29.70
2022-09-02T13:40:24.276Z,29.70
2022-09-02T13:43:02.001Z,29.80
2022-09-02T13:45:38.284Z,29.90
2022-09-02T13:48:17.089Z,29.90
2022-09-02T13:50:46.524Z,29.90
2022-09-02T13:54:05.573Z,29.90
2022-09-02T13:56:25.654Z,29.90
2022-09-02T13:58:57.115Z,29.90
2022-09-02T14:01:38.422Z,29.90
2022-09-02T14:04:14.985Z,29.90
2022-09-02T14:06:45.297Z,29.80
2022-09-02T14:09:25.659Z,29.70
2022-09-02T14:11:54.011Z,29.70
2022-09-02T14:14:24.361Z,29.60
2022-09-02T14:16:52.719Z,29.50
2022-09-02T14:19:24.272Z,29.40
2022-09-02T14:21:56.272Z,29.30
2022-09-02T14:24:29.494Z,29.30
2022-09-02T14:26:58.761Z,29.20
2022-09-02T14:29:28.400Z,29.10
2022-09-02T14:32:09.484Z,29.10
2022-09-02T14:34:39.164Z,29.10
2022-09-02T14:37:47.151Z,29.00
2022-09-02T14:40:14.256Z,29.00
2022-09-02T14:42:57.615Z,29.00
2022-09-02T14:45:28.077Z,28.90
2022-09-02T14:47:56.544Z,28.90
2022-09-02T14:50:29.041Z,28.90
2022-09-02T14:53:03.745Z,28.90
2022-09-02T14:55:52.505Z,28.90
2022-09-02T14:58:21.151Z,28.80
2022-09-02T15:00:55.651Z,28.80
2022-09-02T15:03:23.664Z,28.70
2022-09-02T15:05:52.353Z,28.70
2022-09-02T15:08:20.143Z,28.60
2022-09-02T15:10:47.612Z,28.60
2022-09-02T15:13:20.509Z,28.60
2022-09-02T15:15:47.635Z,28.60
2022-09-02T15:18:14.692Z,28.60
2022-09-02T15:20:41.809Z,28.60
2022-09-02T15:23:08.947Z,28.50
2022-09-02T15:25:36.507Z,28.50
2022-09-02T15:28:03.664Z,28.40
2022-09-02T15:30:31.286Z,28.40
2022-09-02T15:33:06.104Z,28.30
2022-09-02T15:35:34.664Z,28.30
2022-09-02T15:38:02.974Z,28.20
2022-09-02T15:40:31.728Z,28.20
2022-09-02T15:43:00.184Z,28.10
2022-09-02T15:45:28.141Z,28.20
2022-09-02T15:47:59.258Z,28.20
2022-09-02T15:50:31.247Z,28.10
2022-09-02T15:52:58.562Z,28.20
2022-09-02T15:55:29.305Z,28.10
2022-09-02T15:57:57.054Z,28.10
2022-09-02T16:00:28.499Z,28.00
2022-09-02T16:02:57.141Z,28.00
2022-09-02T16:05:24.619Z,28.00
2022-09-02T16:07:54.818Z,28.00
2022-09-02T16:10:22.010Z,27.90
2022-09-02T16:12:49.257Z,27.90
2022-09-02T16:15:16.464Z,27.80
2022-09-02T16:17:43.445Z,27.80
2022-09-02T16:20:10.987Z,27.70
2022-09-02T16:22:37.937Z,27.70
2022-09-02T16:25:05.569Z,27.60
2022-09-02T16:27:50.937Z,27.50
2022-09-02T16:30:18.831Z,27.40
2022-09-02T16:32:46.558Z,27.40
2022-09-02T16:35:13.933Z,27.30
2022-09-02T16:37:40.961Z,27.20
2022-09-02T16:40:08.816Z,27.20
2022-09-02T16:42:38.151Z,27.10
2022-09-02T16:45:05.930Z,27.10
2022-09-02T16:47:32.965Z,27.00
2022-09-02T16:50:00.887Z,27.00
2022-09-02T16:52:28.020Z,26.90
2022-09-02T16:54:55.061Z,26.80
2022-09-02T16:57:21.998Z,26.80
2022-09-02T16:59:49.642Z,26.80
2022-09-02T17:02:16.782Z,26.80
2022-09-02T17:04:43.972Z,26.70
2022-09-02T17:07:11.013Z,26.70
2022-09-02T17:09:38.164Z,26.60
2022-09-02T17:12:05.340Z,26.60
2022-09-02T17:14:32.312Z,26.50
2022-09-02T17:16:59.395Z,26.50
2022-09-02T17:19:31.513Z,26.40
2022-09-02T17:21:59.446Z,26.30
2022-09-02T17:24:31.690Z,26.20
2022-09-02T17:27:00.456Z,26.10
2022-09-02T17:32:19.627Z,26.00
2022-09-02T17:34:48.689Z,25.90
2022-09-02T17:37:15.777Z,25.80
2022-09-02T17:39:42.960Z,25.70
2022-09-02T17:42:10.010Z,25.60
2022-09-02T17:44:39.415Z,25.60
2022-09-02T17:47:09.215Z,25.50
2022-09-02T17:49:38.003Z,25.40
2022-09-02T17:52:07.601Z,25.40
2022-09-02T17:54:35.641Z,25.30
2022-09-02T17:57:14.227Z,25.20
2022-09-02T18:00:16.279Z,25.20
2022-09-02T18:03:37.084Z,25.10
2022-09-02T18:06:19.906Z,25.00
2022-09-02T18:09:07.343Z,24.90
2022-09-02T18:11:38.801Z,24.90
2022-09-02T18:14:38.351Z,24.80
2022-09-02T18:17:14.332Z,24.70
2022-09-02T18:20:03.122Z,24.70
2022-09-02T18:23:20.965Z,24.60
2022-09-02T18:26:02.595Z,24.50
2022-09-02T18:28:58.023Z,24.50
2022-09-02T18:31:34.221Z,24.40
2022-09-02T18:34:30.225Z,24.30
2022-09-02T18:37:06.346Z,24.30
2022-09-02T18:40:11.381Z,24.30
2022-09-02T18:42:38.522Z,24.20
2022-09-02T18:45:05.755Z,24.10
2022-09-02T18:47:43.985Z,24.10
2022-09-02T18:50:32.203Z,24.10
2022-09-02T18:53:02.153Z,24.00
2022-09-02T18:55:39.558Z,24.00
2022-09-02T18:58:22.518Z,24.00
2022-09-02T19:00:57.791Z,23.90
2022-09-02T19:03:25.985Z,23.90
2022-09-02T19:05:55.022Z,23.80
2022-09-02T19:08:32.790Z,23.90
2022-09-02T19:11:10.285Z,23.80
2022-09-02T19:13:53.008Z,23.80
2022-09-02T19:16:36.202Z,23.80
2022-09-02T19:19:04.549Z,23.80
2022-09-02T19:21:43.520Z,23.80
2022-09-02T19:24:24.026Z,23.80
2022-09-02T19:26:56.623Z,23.80
2022-09-02T19:29:24.399Z,23.80
2022-09-02T19:31:55.107Z,23.90
2022-09-02T19:34:24.138Z,23.90
2022-09-02T19:36:52.701Z,23.90
2022-09-02T19:39:19.877Z,23.90
2022-09-02T19:41:49.062Z,23.90
2022-09-02T19:44:17.519Z,23.90
2022-09-02T19:47:30.786Z,23.90
2022-09-02T19:49:31.600Z,23.90
2022-09-02T19:51:58.672Z,23.90
2022-09-02T19:54:26.619Z,23.90
2022-09-02T19:56:53.660Z,23.90
2022-09-02T19:59:20.674Z,23.90
2022-09-02T20:01:47.736Z,23.90
2022-09-02T20:04:15.949Z,23.90
2022-09-02T20:06:43.372Z,23.90
2022-09-02T20:09:11.092Z,23.90
2022-09-02T20:11:41.088Z,24.00
2022-09-02T20:14:08.438Z,23.90
2022-09-02T20:16:35.655Z,23.90
2022-09-02T20:19:03.006Z,23.90
2022-09-02T20:21:45.548Z,23.90
2022-09-02T20:24:17.476Z,23.90
2022-09-02T20:27:03.097Z,23.90
2022-09-02T20:29:44.809Z,23.90
2022-09-02T20:32:49.452Z,23.90
2022-09-02T20:35:53.895Z,23.90
2022-09-02T20:38:33.239Z,23.90
2022-09-02T20:41:19.305Z,23.90
2022-09-02T20:44:20.959Z,23.90
2022-09-02T20:46:59.387Z,23.90
2022-09-02T20:49:54.185Z,23.80
2022-09-02T20:52:47.217Z,23.80
2022-09-02T20:55:23.042Z,23.70
2022-09-02T20:58:16.664Z,23.70
2022-09-02T21:00:53.391Z,23.60
2022-09-02T21:03:25.894Z,23.50
2022-09-02T21:05:58.373Z,23.50
2022-09-02T21:09:03.855Z,23.50
2022-09-02T21:11:42.568Z,23.50
2022-09-02T21:14:16.267Z,23.40
2022-09-02T21:16:49.015Z,23.40
2022-09-02T21:19:35.217Z,23.40
2022-09-02T21:22:11.767Z,23.40
2022-09-02T21:24:41.530Z,23.30
2022-09-02T21:27:50.092Z,23.30
2022-09-02T21:30:27.577Z,23.30
2022-09-02T21:33:01.958Z,23.20
2022-09-02T21:35:42.910Z,23.20
2022-09-02T21:38:14.834Z,23.20
2022-09-02T21:41:06.376Z,23.20
2022-09-02T21:43:52.384Z,23.10
2022-09-02T21:47:01.433Z,23.10
2022-09-02T21:49:49.888Z,23.00
2022-09-02T21:52:55.110Z,23.00
2022-09-02T21:55:59.323Z,22.90
2022-09-02T21:58:29.085Z,22.80
2022-09-02T22:01:21.933Z,22.80
2022-09-02T22:04:02.532Z,22.70
2022-09-02T22:06:57.248Z,22.70
2022-09-02T22:09:27.767Z,22.70
2022-09-02T22:12:05.155Z,22.60
2022-09-02T22:14:39.005Z,22.60
2022-09-02T22:17:34.212Z,22.60
2022-09-02T22:20:05.843Z,22.60
2022-09-02T22:22:38.895Z,22.50
2022-09-02T22:25:17.320Z,22.50
2022-09-02T22:27:51.986Z,22.50
2022-09-02T22:30:20.000Z,22.50
2022-09-02T22:32:55.804Z,22.40
2022-09-02T22:35:52.363Z,22.40
2022-09-02T22:38:27.702Z,22.40
2022-09-02T22:41:24.679Z,22.40
2022-09-02T22:44:22.260Z,22.30
2022-09-02T22:47:25.085Z,22.30
2022-09-02T22:50:15.738Z,22.30
2022-09-02T22:52:49.382Z,22.20
2022-09-02T22:55:26.872Z,22.20
2022-09-02T22:58:03.862Z,22.20
2022-09-02T23:00:42.480Z,22.10
2022-09-02T23:03:14.600Z,22.10
2022-09-02T23:05:53.125Z,22.10
2022-09-02T23:08:21.705Z,22.00
2022-09-02T23:11:28.085Z,22.00
2022-09-02T23:14:09.338Z,22.00
2022-09-02T23:16:54.353Z,21.90
2022-09-02T23:19:43.654Z,21.90
2022-09-02T23:22:41.850Z,21.90
2022-09-02T23:25:19.821Z,21.80
2022-09-02T23:28:03.894Z,21.80
2022-09-02T23:30:31.832Z,21.80
2022-09-02T23:33:07.747Z,21.70
2022-09-02T23:36:10.181Z,21.70
2022-09-02T23:39:10.695Z,21.70
2022-09-02T23:41:38.893Z,21.70
2022-09-02T23:44:06.980Z,21.60
2022-09-02T23:47:00.467Z,21.60
2022-09-02T23:49:30.387Z,21.50
2022-09-02T23:52:07.105Z,21.50
2022-09-02T23:54:38.600Z,21.50
2022-09-02T23:57:42.619Z,21.40
